sensor_id;sensor_type;location;lat;lon;timestamp;P1;durP1;ratioP1;P2;durP2;ratioP2
84301;SDS011;74468;52.218;6.896;2024-01-30T00:01:52;14.52;;;7.82;;
84301;SDS011;74468;52.218;6.896;2024-01-30T00:04:17;15.55;;;7.57;;
84301;SDS011;74468;52.218;6.896;2024-01-30T00:06:43;11.68;;;7.28;;
84301;SDS011;74468;52.218;6.896;2024-01-30T00:09:09;14.10;;;7.00;;
84301;SDS011;74468;52.218;6.896;2024-01-30T00:11:35;14.02;;;7.03;;
84301;SDS011;74468;52.218;6.896;2024-01-30T00:14:01;10.85;;;6.93;;
84301;SDS011;74468;52.218;6.896;2024-01-30T00:18:53;10.52;;;6.70;;
84301;SDS011;74468;52.218;6.896;2024-01-30T00:21:19;11.20;;;6.95;;
84301;SDS011;74468;52.218;6.896;2024-01-30T00:23:45;16.02;;;8.38;;
84301;SDS011;74468;52.218;6.896;2024-01-30T00:26:10;12.82;;;7.32;;
84301;SDS011;74468;52.218;6.896;2024-01-30T00:28:36;12.48;;;7.40;;
84301;SDS011;74468;52.218;6.896;2024-01-30T00:31:02;14.60;;;7.57;;
84301;SDS011;74468;52.218;6.896;2024-01-30T00:33:28;14.93;;;7.85;;
84301;SDS011;74468;52.218;6.896;2024-01-30T00:35:53;13.05;;;7.75;;
84301;SDS011;74468;52.218;6.896;2024-01-30T00:38:18;11.88;;;7.97;;
84301;SDS011;74468;52.218;6.896;2024-01-30T00:40:44;12.25;;;7.55;;
84301;SDS011;74468;52.218;6.896;2024-01-30T00:43:09;11.07;;;6.80;;
84301;SDS011;74468;52.218;6.896;2024-01-30T00:45:35;13.00;;;8.00;;
84301;SDS011;74468;52.218;6.896;2024-01-30T00:48:00;13.52;;;7.15;;
84301;SDS011;74468;52.218;6.896;2024-01-30T00:50:25;12.15;;;7.82;;
84301;SDS011;74468;52.218;6.896;2024-01-30T00:52:51;10.98;;;6.88;;
84301;SDS011;74468;52.218;6.896;2024-01-30T00:55:16;14.75;;;7.75;;
84301;SDS011;74468;52.218;6.896;2024-01-30T00:57:42;15.93;;;7.13;;
84301;SDS011;74468;52.218;6.896;2024-01-30T01:00:07;13.13;;;6.60;;
84301;SDS011;74468;52.218;6.896;2024-01-30T01:02:34;13.02;;;7.55;;
84301;SDS011;74468;52.218;6.896;2024-01-30T01:05:00;11.93;;;7.25;;
84301;SDS011;74468;52.218;6.896;2024-01-30T01:07:26;11.55;;;7.25;;
84301;SDS011;74468;52.218;6.896;2024-01-30T01:09:51;11.93;;;7.38;;
84301;SDS011;74468;52.218;6.896;2024-01-30T01:12:17;12.05;;;7.10;;
84301;SDS011;74468;52.218;6.896;2024-01-30T01:14:42;11.30;;;7.20;;
84301;SDS011;74468;52.218;6.896;2024-01-30T01:17:08;25.83;;;9.73;;
84301;SDS011;74468;52.218;6.896;2024-01-30T01:19:33;11.27;;;7.07;;
84301;SDS011;74468;52.218;6.896;2024-01-30T01:21:58;12.23;;;7.20;;
84301;SDS011;74468;52.218;6.896;2024-01-30T01:24:24;22.13;;;9.05;;
84301;SDS011;74468;52.218;6.896;2024-01-30T01:26:49;14.35;;;8.00;;
84301;SDS011;74468;52.218;6.896;2024-01-30T01:29:15;13.85;;;7.78;;
84301;SDS011;74468;52.218;6.896;2024-01-30T01:31:41;11.15;;;6.75;;
84301;SDS011;74468;52.218;6.896;2024-01-30T01:34:12;13.45;;;7.25;;
84301;SDS011;74468;52.218;6.896;2024-01-30T01:36:37;10.98;;;7.28;;
84301;SDS011;74468;52.218;6.896;2024-01-30T01:39:03;9.88;;;6.80;;
84301;SDS011;74468;52.218;6.896;2024-01-30T01:41:32;11.88;;;7.53;;
84301;SDS011;74468;52.218;6.896;2024-01-30T01:43:58;12.82;;;6.50;;
84301;SDS011;74468;52.218;6.896;2024-01-30T01:46:26;14.38;;;8.38;;
84301;SDS011;74468;52.218;6.896;2024-01-30T01:48:52;12.45;;;7.70;;
84301;SDS011;74468;52.218;6.896;2024-01-30T01:51:17;12.50;;;6.88;;
84301;SDS011;74468;52.218;6.896;2024-01-30T01:53:43;11.48;;;7.03;;
84301;SDS011;74468;52.218;6.896;2024-01-30T01:56:08;11.48;;;7.20;;
84301;SDS011;74468;52.218;6.896;2024-01-30T01:58:33;12.45;;;7.45;;
84301;SDS011;74468;52.218;6.896;2024-01-30T02:00:59;14.25;;;7.85;;
84301;SDS011;74468;52.218;6.896;2024-01-30T02:03:24;14.60;;;7.35;;
84301;SDS011;74468;52.218;6.896;2024-01-30T02:05:50;13.02;;;7.57;;
84301;SDS011;74468;52.218;6.896;2024-01-30T02:08:16;11.00;;;6.45;;
84301;SDS011;74468;52.218;6.896;2024-01-30T02:10:41;10.70;;;7.10;;
84301;SDS011;74468;52.218;6.896;2024-01-30T02:13:06;12.15;;;7.10;;
84301;SDS011;74468;52.218;6.896;2024-01-30T02:15:32;15.73;;;7.50;;
84301;SDS011;74468;52.218;6.896;2024-01-30T02:17:57;10.65;;;6.60;;
84301;SDS011;74468;52.218;6.896;2024-01-30T02:20:23;13.27;;;7.80;;
84301;SDS011;74468;52.218;6.896;2024-01-30T02:22:50;13.75;;;6.97;;
84301;SDS011;74468;52.218;6.896;2024-01-30T02:25:17;12.07;;;7.50;;
84301;SDS011;74468;52.218;6.896;2024-01-30T02:27:43;14.18;;;7.50;;
84301;SDS011;74468;52.218;6.896;2024-01-30T02:30:08;13.13;;;8.05;;
84301;SDS011;74468;52.218;6.896;2024-01-30T02:32:34;11.23;;;7.15;;
84301;SDS011;74468;52.218;6.896;2024-01-30T02:34:59;10.25;;;7.05;;
84301;SDS011;74468;52.218;6.896;2024-01-30T02:37:25;11.05;;;6.97;;
84301;SDS011;74468;52.218;6.896;2024-01-30T02:39:50;12.02;;;7.88;;
84301;SDS011;74468;52.218;6.896;2024-01-30T02:42:15;14.25;;;7.22;;
84301;SDS011;74468;52.218;6.896;2024-01-30T02:44:41;14.05;;;7.78;;
84301;SDS011;74468;52.218;6.896;2024-01-30T02:47:06;11.07;;;7.22;;
84301;SDS011;74468;52.218;6.896;2024-01-30T02:49:31;10.50;;;6.78;;
84301;SDS011;74468;52.218;6.896;2024-01-30T02:51:57;12.75;;;7.28;;
84301;SDS011;74468;52.218;6.896;2024-01-30T02:54:22;11.60;;;7.47;;
84301;SDS011;74468;52.218;6.896;2024-01-30T02:56:47;15.05;;;7.78;;
84301;SDS011;74468;52.218;6.896;2024-01-30T02:59:13;11.68;;;7.93;;
84301;SDS011;74468;52.218;6.896;2024-01-30T03:01:42;12.95;;;8.23;;
84301;SDS011;74468;52.218;6.896;2024-01-30T03:04:09;12.48;;;7.68;;
84301;SDS011;74468;52.218;6.896;2024-01-30T03:06:34;11.80;;;7.72;;
84301;SDS011;74468;52.218;6.896;2024-01-30T03:09:00;12.55;;;7.70;;
84301;SDS011;74468;52.218;6.896;2024-01-30T03:11:25;25.33;;;11.13;;
84301;SDS011;74468;52.218;6.896;2024-01-30T03:13:50;15.40;;;7.97;;
84301;SDS011;74468;52.218;6.896;2024-01-30T03:16:16;11.70;;;7.47;;
84301;SDS011;74468;52.218;6.896;2024-01-30T03:18:41;16.77;;;7.82;;
84301;SDS011;74468;52.218;6.896;2024-01-30T03:21:07;11.50;;;7.68;;
84301;SDS011;74468;52.218;6.896;2024-01-30T03:23:32;15.82;;;8.00;;
84301;SDS011;74468;52.218;6.896;2024-01-30T03:25:58;14.23;;;7.22;;
84301;SDS011;74468;52.218;6.896;2024-01-30T03:28:23;13.77;;;7.22;;
84301;SDS011;74468;52.218;6.896;2024-01-30T03:30:49;11.57;;;6.97;;
84301;SDS011;74468;52.218;6.896;2024-01-30T03:33:14;10.40;;;6.70;;
84301;SDS011;74468;52.218;6.896;2024-01-30T03:35:39;14.82;;;7.32;;
84301;SDS011;74468;52.218;6.896;2024-01-30T03:38:05;13.00;;;7.05;;
84301;SDS011;74468;52.218;6.896;2024-01-30T03:40:30;10.75;;;6.95;;
84301;SDS011;74468;52.218;6.896;2024-01-30T03:42:55;12.10;;;7.93;;
84301;SDS011;74468;52.218;6.896;2024-01-30T03:45:21;11.18;;;6.75;;
84301;SDS011;74468;52.218;6.896;2024-01-30T03:47:46;12.30;;;7.40;;
84301;SDS011;74468;52.218;6.896;2024-01-30T03:50:12;11.20;;;7.03;;
84301;SDS011;74468;52.218;6.896;2024-01-30T03:52:37;10.23;;;6.20;;
84301;SDS011;74468;52.218;6.896;2024-01-30T03:55:03;14.35;;;7.93;;
84301;SDS011;74468;52.218;6.896;2024-01-30T03:57:29;13.18;;;7.45;;
84301;SDS011;74468;52.218;6.896;2024-01-30T03:59:54;13.23;;;7.30;;
84301;SDS011;74468;52.218;6.896;2024-01-30T04:02:20;12.05;;;7.10;;
84301;SDS011;74468;52.218;6.896;2024-01-30T04:04:45;15.18;;;7.45;;
84301;SDS011;74468;52.218;6.896;2024-01-30T04:07:10;12.73;;;7.60;;
84301;SDS011;74468;52.218;6.896;2024-01-30T04:09:36;13.45;;;7.20;;
84301;SDS011;74468;52.218;6.896;2024-01-30T04:12:01;10.30;;;7.28;;
84301;SDS011;74468;52.218;6.896;2024-01-30T04:14:27;10.55;;;7.10;;
84301;SDS011;74468;52.218;6.896;2024-01-30T04:16:53;10.05;;;6.70;;
84301;SDS011;74468;52.218;6.896;2024-01-30T04:19:18;13.45;;;6.90;;
84301;SDS011;74468;52.218;6.896;2024-01-30T04:21:44;10.32;;;7.18;;
84301;SDS011;74468;52.218;6.896;2024-01-30T04:24:09;12.25;;;7.88;;
84301;SDS011;74468;52.218;6.896;2024-01-30T04:26:34;11.60;;;6.95;;
84301;SDS011;74468;52.218;6.896;2024-01-30T04:29:01;11.48;;;7.30;;
84301;SDS011;74468;52.218;6.896;2024-01-30T04:31:26;12.38;;;7.55;;
84301;SDS011;74468;52.218;6.896;2024-01-30T04:33:52;11.95;;;7.60;;
84301;SDS011;74468;52.218;6.896;2024-01-30T04:36:17;10.05;;;7.03;;
84301;SDS011;74468;52.218;6.896;2024-01-30T04:38:43;12.30;;;7.32;;
84301;SDS011;74468;52.218;6.896;2024-01-30T04:41:08;13.50;;;7.50;;
84301;SDS011;74468;52.218;6.896;2024-01-30T04:43:33;12.82;;;7.97;;
84301;SDS011;74468;52.218;6.896;2024-01-30T04:45:59;10.82;;;7.55;;
84301;SDS011;74468;52.218;6.896;2024-01-30T04:48:24;10.85;;;7.07;;
84301;SDS011;74468;52.218;6.896;2024-01-30T04:50:49;14.25;;;7.55;;
84301;SDS011;74468;52.218;6.896;2024-01-30T04:53:15;14.85;;;8.10;;
84301;SDS011;74468;52.218;6.896;2024-01-30T04:55:40;12.55;;;7.60;;
84301;SDS011;74468;52.218;6.896;2024-01-30T04:58:05;13.32;;;6.97;;
84301;SDS011;74468;52.218;6.896;2024-01-30T05:00:31;13.45;;;7.70;;
84301;SDS011;74468;52.218;6.896;2024-01-30T05:02:56;13.55;;;8.43;;
84301;SDS011;74468;52.218;6.896;2024-01-30T05:05:22;11.15;;;7.47;;
84301;SDS011;74468;52.218;6.896;2024-01-30T05:07:47;13.18;;;6.78;;
84301;SDS011;74468;52.218;6.896;2024-01-30T05:10:13;10.77;;;7.28;;
84301;SDS011;74468;52.218;6.896;2024-01-30T05:12:38;11.68;;;7.85;;
84301;SDS011;74468;52.218;6.896;2024-01-30T05:15:04;10.70;;;7.00;;
84301;SDS011;74468;52.218;6.896;2024-01-30T05:17:30;10.88;;;7.28;;
84301;SDS011;74468;52.218;6.896;2024-01-30T05:19:55;11.48;;;7.28;;
84301;SDS011;74468;52.218;6.896;2024-01-30T05:22:21;13.52;;;6.45;;
84301;SDS011;74468;52.218;6.896;2024-01-30T05:24:46;18.63;;;8.38;;
84301;SDS011;74468;52.218;6.896;2024-01-30T05:27:11;11.45;;;7.43;;
84301;SDS011;74468;52.218;6.896;2024-01-30T05:29:38;9.85;;;6.60;;
84301;SDS011;74468;52.218;6.896;2024-01-30T05:32:04;15.15;;;8.35;;
84301;SDS011;74468;52.218;6.896;2024-01-30T05:34:30;13.00;;;7.47;;
84301;SDS011;74468;52.218;6.896;2024-01-30T05:36:56;11.27;;;6.88;;
84301;SDS011;74468;52.218;6.896;2024-01-30T05:39:21;14.27;;;7.85;;
84301;SDS011;74468;52.218;6.896;2024-01-30T05:41:46;15.40;;;8.48;;
84301;SDS011;74468;52.218;6.896;2024-01-30T05:44:12;13.77;;;7.93;;
84301;SDS011;74468;52.218;6.896;2024-01-30T05:46:37;16.50;;;7.38;;
84301;SDS011;74468;52.218;6.896;2024-01-30T05:49:03;13.15;;;7.82;;
84301;SDS011;74468;52.218;6.896;2024-01-30T05:51:28;13.90;;;8.00;;
84301;SDS011;74468;52.218;6.896;2024-01-30T05:53:54;15.02;;;8.32;;
84301;SDS011;74468;52.218;6.896;2024-01-30T05:56:19;12.35;;;7.70;;
84301;SDS011;74468;52.218;6.896;2024-01-30T05:58:45;12.85;;;7.72;;
84301;SDS011;74468;52.218;6.896;2024-01-30T06:01:10;14.77;;;9.45;;
84301;SDS011;74468;52.218;6.896;2024-01-30T06:03:35;23.00;;;9.05;;
84301;SDS011;74468;52.218;6.896;2024-01-30T06:06:01;11.73;;;7.35;;
84301;SDS011;74468;52.218;6.896;2024-01-30T06:08:26;13.77;;;8.05;;
84301;SDS011;74468;52.218;6.896;2024-01-30T06:10:51;18.83;;;8.95;;
84301;SDS011;74468;52.218;6.896;2024-01-30T06:13:17;13.77;;;7.40;;
84301;SDS011;74468;52.218;6.896;2024-01-30T06:15:43;13.60;;;7.50;;
84301;SDS011;74468;52.218;6.896;2024-01-30T06:18:08;13.93;;;7.90;;
84301;SDS011;74468;52.218;6.896;2024-01-30T06:20:34;16.98;;;7.78;;
84301;SDS011;74468;52.218;6.896;2024-01-30T06:22:59;13.15;;;7.72;;
84301;SDS011;74468;52.218;6.896;2024-01-30T06:25:24;11.30;;;6.90;;
84301;SDS011;74468;52.218;6.896;2024-01-30T06:27:50;12.68;;;7.80;;
84301;SDS011;74468;52.218;6.896;2024-01-30T06:30:15;11.40;;;7.35;;
84301;SDS011;74468;52.218;6.896;2024-01-30T06:32:41;11.65;;;7.90;;
84301;SDS011;74468;52.218;6.896;2024-01-30T06:35:06;13.32;;;8.32;;
84301;SDS011;74468;52.218;6.896;2024-01-30T06:37:32;13.43;;;7.70;;
84301;SDS011;74468;52.218;6.896;2024-01-30T06:39:57;12.73;;;8.15;;
84301;SDS011;74468;52.218;6.896;2024-01-30T06:42:23;12.30;;;7.80;;
84301;SDS011;74468;52.218;6.896;2024-01-30T06:44:48;13.90;;;7.47;;
84301;SDS011;74468;52.218;6.896;2024-01-30T06:47:13;15.05;;;8.40;;
84301;SDS011;74468;52.218;6.896;2024-01-30T06:49:39;16.40;;;8.68;;
84301;SDS011;74468;52.218;6.896;2024-01-30T06:52:07;12.75;;;8.18;;
84301;SDS011;74468;52.218;6.896;2024-01-30T06:54:32;10.40;;;7.45;;
84301;SDS011;74468;52.218;6.896;2024-01-30T06:56:58;14.63;;;7.70;;
84301;SDS011;74468;52.218;6.896;2024-01-30T06:59:24;10.02;;;6.93;;
84301;SDS011;74468;52.218;6.896;2024-01-30T07:01:49;13.27;;;7.05;;
84301;SDS011;74468;52.218;6.896;2024-01-30T07:04:14;20.55;;;8.38;;
84301;SDS011;74468;52.218;6.896;2024-01-30T07:06:41;15.15;;;7.65;;
84301;SDS011;74468;52.218;6.896;2024-01-30T07:09:06;11.85;;;7.78;;
84301;SDS011;74468;52.218;6.896;2024-01-30T07:11:31;14.23;;;7.85;;
84301;SDS011;74468;52.218;6.896;2024-01-30T07:13:57;13.77;;;7.82;;
84301;SDS011;74468;52.218;6.896;2024-01-30T07:16:22;13.93;;;6.93;;
84301;SDS011;74468;52.218;6.896;2024-01-30T07:18:48;10.80;;;7.32;;
84301;SDS011;74468;52.218;6.896;2024-01-30T07:21:14;13.50;;;7.85;;
84301;SDS011;74468;52.218;6.896;2024-01-30T07:23:40;13.52;;;7.18;;
84301;SDS011;74468;52.218;6.896;2024-01-30T07:26:06;11.48;;;7.10;;
84301;SDS011;74468;52.218;6.896;2024-01-30T07:28:33;15.25;;;7.60;;
84301;SDS011;74468;52.218;6.896;2024-01-30T07:30:59;9.63;;;7.15;;
84301;SDS011;74468;52.218;6.896;2024-01-30T07:33:24;12.13;;;7.60;;
84301;SDS011;74468;52.218;6.896;2024-01-30T07:35:51;10.63;;;7.50;;
84301;SDS011;74468;52.218;6.896;2024-01-30T07:38:17;11.50;;;6.78;;
84301;SDS011;74468;52.218;6.896;2024-01-30T07:40:42;15.75;;;7.18;;
84301;SDS011;74468;52.218;6.896;2024-01-30T07:43:08;14.43;;;7.00;;
84301;SDS011;74468;52.218;6.896;2024-01-30T07:45:34;13.50;;;7.38;;
84301;SDS011;74468;52.218;6.896;2024-01-30T07:47:59;14.18;;;7.05;;
84301;SDS011;74468;52.218;6.896;2024-01-30T07:50:25;10.27;;;6.47;;
84301;SDS011;74468;52.218;6.896;2024-01-30T07:52:50;12.80;;;7.57;;
84301;SDS011;74468;52.218;6.896;2024-01-30T07:55:19;15.05;;;6.88;;
84301;SDS011;74468;52.218;6.896;2024-01-30T07:57:46;14.82;;;7.05;;
84301;SDS011;74468;52.218;6.896;2024-01-30T08:00:12;16.60;;;7.38;;
84301;SDS011;74468;52.218;6.896;2024-01-30T08:02:38;10.68;;;6.95;;
84301;SDS011;74468;52.218;6.896;2024-01-30T08:05:03;10.40;;;6.60;;
84301;SDS011;74468;52.218;6.896;2024-01-30T08:07:29;12.98;;;7.85;;
84301;SDS011;74468;52.218;6.896;2024-01-30T08:09:55;14.60;;;6.93;;
84301;SDS011;74468;52.218;6.896;2024-01-30T08:12:20;14.52;;;7.30;;
84301;SDS011;74468;52.218;6.896;2024-01-30T08:14:46;11.27;;;5.35;;
84301;SDS011;74468;52.218;6.896;2024-01-30T08:17:11;13.18;;;6.55;;
84301;SDS011;74468;52.218;6.896;2024-01-30T08:19:37;9.88;;;5.70;;
84301;SDS011;74468;52.218;6.896;2024-01-30T08:22:02;11.88;;;7.03;;
84301;SDS011;74468;52.218;6.896;2024-01-30T08:24:28;11.65;;;6.55;;
84301;SDS011;74468;52.218;6.896;2024-01-30T08:26:53;12.75;;;7.07;;
84301;SDS011;74468;52.218;6.896;2024-01-30T08:29:18;11.07;;;6.55;;
84301;SDS011;74468;52.218;6.896;2024-01-30T08:31:44;8.45;;;5.05;;
84301;SDS011;74468;52.218;6.896;2024-01-30T08:34:11;9.65;;;6.20;;
84301;SDS011;74468;52.218;6.896;2024-01-30T08:36:36;11.75;;;6.15;;
84301;SDS011;74468;52.218;6.896;2024-01-30T08:39:01;9.00;;;6.25;;
84301;SDS011;74468;52.218;6.896;2024-01-30T08:41:27;12.35;;;5.97;;
84301;SDS011;74468;52.218;6.896;2024-01-30T08:43:53;11.05;;;5.90;;
84301;SDS011;74468;52.218;6.896;2024-01-30T08:46:19;9.93;;;6.80;;
84301;SDS011;74468;52.218;6.896;2024-01-30T08:48:45;11.18;;;6.25;;
84301;SDS011;74468;52.218;6.896;2024-01-30T08:51:11;10.77;;;6.35;;
84301;SDS011;74468;52.218;6.896;2024-01-30T08:53:37;11.30;;;7.07;;
84301;SDS011;74468;52.218;6.896;2024-01-30T08:56:03;11.35;;;6.90;;
84301;SDS011;74468;52.218;6.896;2024-01-30T08:58:28;8.73;;;5.75;;
84301;SDS011;74468;52.218;6.896;2024-01-30T09:00:54;8.25;;;5.38;;
84301;SDS011;74468;52.218;6.896;2024-01-30T09:03:20;10.75;;;6.18;;
84301;SDS011;74468;52.218;6.896;2024-01-30T09:05:46;10.48;;;6.25;;
84301;SDS011;74468;52.218;6.896;2024-01-30T09:08:11;11.65;;;6.03;;
84301;SDS011;74468;52.218;6.896;2024-01-30T09:10:37;11.48;;;6.75;;
84301;SDS011;74468;52.218;6.896;2024-01-30T09:13:02;9.32;;;5.68;;
84301;SDS011;74468;52.218;6.896;2024-01-30T09:15:28;12.82;;;7.25;;
84301;SDS011;74468;52.218;6.896;2024-01-30T09:17:53;8.85;;;7.07;;
84301;SDS011;74468;52.218;6.896;2024-01-30T09:20:18;12.07;;;6.25;;
84301;SDS011;74468;52.218;6.896;2024-01-30T09:22:45;9.00;;;5.55;;
84301;SDS011;74468;52.218;6.896;2024-01-30T09:25:10;9.35;;;6.97;;
84301;SDS011;74468;52.218;6.896;2024-01-30T09:27:36;11.43;;;6.30;;
84301;SDS011;74468;52.218;6.896;2024-01-30T09:30:01;16.55;;;8.32;;
84301;SDS011;74468;52.218;6.896;2024-01-30T09:32:27;10.32;;;6.78;;
84301;SDS011;74468;52.218;6.896;2024-01-30T09:34:52;11.77;;;5.80;;
84301;SDS011;74468;52.218;6.896;2024-01-30T09:37:17;10.77;;;6.13;;
84301;SDS011;74468;52.218;6.896;2024-01-30T09:39:43;9.10;;;5.45;;
84301;SDS011;74468;52.218;6.896;2024-01-30T09:42:12;9.45;;;5.78;;
84301;SDS011;74468;52.218;6.896;2024-01-30T09:44:45;11.23;;;6.25;;
84301;SDS011;74468;52.218;6.896;2024-01-30T09:47:12;9.35;;;5.97;;
84301;SDS011;74468;52.218;6.896;2024-01-30T09:49:38;13.68;;;7.05;;
84301;SDS011;74468;52.218;6.896;2024-01-30T09:52:05;8.40;;;5.63;;
84301;SDS011;74468;52.218;6.896;2024-01-30T09:54:30;10.65;;;5.68;;
84301;SDS011;74468;52.218;6.896;2024-01-30T09:56:56;13.32;;;6.45;;
84301;SDS011;74468;52.218;6.896;2024-01-30T09:59:22;9.82;;;6.07;;
84301;SDS011;74468;52.218;6.896;2024-01-30T10:01:48;8.40;;;6.22;;
84301;SDS011;74468;52.218;6.896;2024-01-30T10:04:14;12.57;;;5.97;;
84301;SDS011;74468;52.218;6.896;2024-01-30T10:06:40;8.48;;;5.75;;
84301;SDS011;74468;52.218;6.896;2024-01-30T10:09:05;9.65;;;6.10;;
84301;SDS011;74468;52.218;6.896;2024-01-30T10:11:31;10.10;;;6.78;;
84301;SDS011;74468;52.218;6.896;2024-01-30T10:13:56;12.57;;;6.43;;
84301;SDS011;74468;52.218;6.896;2024-01-30T10:16:22;9.88;;;5.88;;
84301;SDS011;74468;52.218;6.896;2024-01-30T10:18:47;12.10;;;8.00;;
84301;SDS011;74468;52.218;6.896;2024-01-30T10:21:12;13.10;;;7.03;;
84301;SDS011;74468;52.218;6.896;2024-01-30T10:23:43;11.60;;;5.65;;
84301;SDS011;74468;52.218;6.896;2024-01-30T10:26:08;8.82;;;5.32;;
84301;SDS011;74468;52.218;6.896;2024-01-30T10:28:34;10.38;;;6.60;;
84301;SDS011;74468;52.218;6.896;2024-01-30T10:30:59;9.20;;;6.38;;
84301;SDS011;74468;52.218;6.896;2024-01-30T10:33:26;14.68;;;6.63;;
84301;SDS011;74468;52.218;6.896;2024-01-30T10:35:53;9.98;;;6.43;;
84301;SDS011;74468;52.218;6.896;2024-01-30T10:38:20;9.48;;;6.72;;
84301;SDS011;74468;52.218;6.896;2024-01-30T10:40:46;9.27;;;6.38;;
84301;SDS011;74468;52.218;6.896;2024-01-30T10:43:12;9.25;;;6.28;;
84301;SDS011;74468;52.218;6.896;2024-01-30T10:45:40;8.77;;;6.20;;
84301;SDS011;74468;52.218;6.896;2024-01-30T10:48:09;12.88;;;6.68;;
84301;SDS011;74468;52.218;6.896;2024-01-30T10:50:36;10.55;;;6.72;;
84301;SDS011;74468;52.218;6.896;2024-01-30T10:53:02;10.13;;;6.80;;
84301;SDS011;74468;52.218;6.896;2024-01-30T10:55:28;10.27;;;6.65;;
84301;SDS011;74468;52.218;6.896;2024-01-30T10:57:54;11.10;;;6.68;;
84301;SDS011;74468;52.218;6.896;2024-01-30T11:00:20;11.98;;;7.03;;
84301;SDS011;74468;52.218;6.896;2024-01-30T11:02:48;10.85;;;6.90;;
84301;SDS011;74468;52.218;6.896;2024-01-30T11:05:14;8.85;;;5.78;;
84301;SDS011;74468;52.218;6.896;2024-01-30T11:07:42;9.75;;;6.90;;
84301;SDS011;74468;52.218;6.896;2024-01-30T11:10:08;9.90;;;6.43;;
84301;SDS011;74468;52.218;6.896;2024-01-30T11:12:38;12.30;;;7.13;;
84301;SDS011;74468;52.218;6.896;2024-01-30T11:15:14;11.05;;;6.78;;
84301;SDS011;74468;52.218;6.896;2024-01-30T11:20:22;9.93;;;5.95;;
84301;SDS011;74468;52.218;6.896;2024-01-30T11:22:51;11.15;;;6.63;;
84301;SDS011;74468;52.218;6.896;2024-01-30T11:25:19;18.55;;;7.78;;
84301;SDS011;74468;52.218;6.896;2024-01-30T11:27:45;9.77;;;6.35;;
84301;SDS011;74468;52.218;6.896;2024-01-30T11:35:37;11.32;;;6.25;;
84301;SDS011;74468;52.218;6.896;2024-01-30T11:38:07;10.07;;;6.25;;
84301;SDS011;74468;52.218;6.896;2024-01-30T11:40:33;11.68;;;5.43;;
84301;SDS011;74468;52.218;6.896;2024-01-30T11:43:00;10.45;;;6.55;;
84301;SDS011;74468;52.218;6.896;2024-01-30T11:45:27;10.55;;;5.97;;
84301;SDS011;74468;52.218;6.896;2024-01-30T11:47:52;11.63;;;7.18;;
84301;SDS011;74468;52.218;6.896;2024-01-30T11:50:18;10.20;;;6.72;;
84301;SDS011;74468;52.218;6.896;2024-01-30T11:52:44;11.70;;;6.47;;
84301;SDS011;74468;52.218;6.896;2024-01-30T11:55:09;9.82;;;6.93;;
84301;SDS011;74468;52.218;6.896;2024-01-30T11:57:35;10.85;;;6.82;;
84301;SDS011;74468;52.218;6.896;2024-01-30T12:00:02;12.45;;;7.05;;
84301;SDS011;74468;52.218;6.896;2024-01-30T12:02:39;12.02;;;7.50;;
84301;SDS011;74468;52.218;6.896;2024-01-30T12:05:05;11.13;;;6.40;;
84301;SDS011;74468;52.218;6.896;2024-01-30T12:09:57;12.02;;;6.55;;
84301;SDS011;74468;52.218;6.896;2024-01-30T12:12:23;11.93;;;6.78;;
84301;SDS011;74468;52.218;6.896;2024-01-30T12:14:49;12.68;;;6.65;;
84301;SDS011;74468;52.218;6.896;2024-01-30T12:17:30;11.10;;;6.93;;
84301;SDS011;74468;52.218;6.896;2024-01-30T12:22:33;13.00;;;6.50;;
84301;SDS011;74468;52.218;6.896;2024-01-30T12:25:00;11.52;;;6.15;;
84301;SDS011;74468;52.218;6.896;2024-01-30T12:27:26;10.38;;;6.53;;
84301;SDS011;74468;52.218;6.896;2024-01-30T12:29:58;11.93;;;6.07;;
84301;SDS011;74468;52.218;6.896;2024-01-30T12:32:23;10.13;;;6.03;;
84301;SDS011;74468;52.218;6.896;2024-01-30T12:34:49;12.48;;;7.10;;
84301;SDS011;74468;52.218;6.896;2024-01-30T12:37:14;10.35;;;5.97;;
84301;SDS011;74468;52.218;6.896;2024-01-30T12:39:44;11.35;;;6.28;;
84301;SDS011;74468;52.218;6.896;2024-01-30T12:42:10;10.60;;;5.93;;
84301;SDS011;74468;52.218;6.896;2024-01-30T12:44:35;10.30;;;5.82;;
84301;SDS011;74468;52.218;6.896;2024-01-30T12:47:03;14.23;;;6.45;;
84301;SDS011;74468;52.218;6.896;2024-01-30T12:49:28;10.98;;;5.93;;
84301;SDS011;74468;52.218;6.896;2024-01-30T12:51:54;9.65;;;5.70;;
84301;SDS011;74468;52.218;6.896;2024-01-30T12:54:19;9.07;;;6.35;;
84301;SDS011;74468;52.218;6.896;2024-01-30T12:56:44;8.55;;;6.55;;
84301;SDS011;74468;52.218;6.896;2024-01-30T12:59:10;11.15;;;5.95;;
84301;SDS011;74468;52.218;6.896;2024-01-30T13:01:35;11.73;;;6.60;;
84301;SDS011;74468;52.218;6.896;2024-01-30T13:04:01;10.57;;;6.40;;
84301;SDS011;74468;52.218;6.896;2024-01-30T13:06:26;9.05;;;6.20;;
84301;SDS011;74468;52.218;6.896;2024-01-30T13:08:52;10.65;;;7.57;;
84301;SDS011;74468;52.218;6.896;2024-01-30T13:11:17;13.32;;;6.43;;
84301;SDS011;74468;52.218;6.896;2024-01-30T13:13:43;11.10;;;6.18;;
84301;SDS011;74468;52.218;6.896;2024-01-30T13:16:08;10.70;;;6.38;;
84301;SDS011;74468;52.218;6.896;2024-01-30T13:18:34;11.85;;;6.20;;
84301;SDS011;74468;52.218;6.896;2024-01-30T13:20:59;9.88;;;6.25;;
84301;SDS011;74468;52.218;6.896;2024-01-30T13:23:25;8.70;;;6.10;;
84301;SDS011;74468;52.218;6.896;2024-01-30T13:25:50;9.10;;;6.13;;
84301;SDS011;74468;52.218;6.896;2024-01-30T13:28:15;14.00;;;7.43;;
84301;SDS011;74468;52.218;6.896;2024-01-30T13:30:41;12.55;;;6.68;;
84301;SDS011;74468;52.218;6.896;2024-01-30T13:33:06;10.52;;;5.65;;
84301;SDS011;74468;52.218;6.896;2024-01-30T13:35:31;15.02;;;6.47;;
84301;SDS011;74468;52.218;6.896;2024-01-30T13:37:57;13.13;;;5.70;;
84301;SDS011;74468;52.218;6.896;2024-01-30T13:40:22;10.80;;;6.50;;
84301;SDS011;74468;52.218;6.896;2024-01-30T13:42:48;9.68;;;5.93;;
84301;SDS011;74468;52.218;6.896;2024-01-30T13:45:13;7.00;;;5.95;;
84301;SDS011;74468;52.218;6.896;2024-01-30T13:47:39;9.93;;;5.78;;
84301;SDS011;74468;52.218;6.896;2024-01-30T13:50:05;9.50;;;5.05;;
84301;SDS011;74468;52.218;6.896;2024-01-30T13:52:30;12.48;;;5.90;;
84301;SDS011;74468;52.218;6.896;2024-01-30T13:54:56;8.45;;;4.10;;
84301;SDS011;74468;52.218;6.896;2024-01-30T13:57:21;10.60;;;5.90;;
84301;SDS011;74468;52.218;6.896;2024-01-30T13:59:46;10.63;;;5.35;;
84301;SDS011;74468;52.218;6.896;2024-01-30T14:02:12;10.20;;;5.55;;
84301;SDS011;74468;52.218;6.896;2024-01-30T14:04:37;7.97;;;4.80;;
84301;SDS011;74468;52.218;6.896;2024-01-30T14:07:03;6.53;;;4.30;;
84301;SDS011;74468;52.218;6.896;2024-01-30T14:09:29;8.77;;;5.25;;
84301;SDS011;74468;52.218;6.896;2024-01-30T14:11:54;9.07;;;4.70;;
84301;SDS011;74468;52.218;6.896;2024-01-30T14:14:20;10.90;;;4.72;;
84301;SDS011;74468;52.218;6.896;2024-01-30T14:16:45;7.00;;;5.05;;
84301;SDS011;74468;52.218;6.896;2024-01-30T14:19:11;7.47;;;4.22;;
84301;SDS011;74468;52.218;6.896;2024-01-30T14:21:36;9.98;;;4.68;;
84301;SDS011;74468;52.218;6.896;2024-01-30T14:24:02;9.57;;;4.88;;
84301;SDS011;74468;52.218;6.896;2024-01-30T14:26:28;9.60;;;4.60;;
84301;SDS011;74468;52.218;6.896;2024-01-30T14:28:53;7.43;;;3.88;;
84301;SDS011;74468;52.218;6.896;2024-01-30T14:31:20;12.00;;;5.78;;
84301;SDS011;74468;52.218;6.896;2024-01-30T14:36:11;4.63;;;2.70;;
84301;SDS011;74468;52.218;6.896;2024-01-30T14:38:37;4.38;;;2.50;;
84301;SDS011;74468;52.218;6.896;2024-01-30T14:41:02;3.97;;;2.10;;
84301;SDS011;74468;52.218;6.896;2024-01-30T14:43:29;4.63;;;2.03;;
84301;SDS011;74468;52.218;6.896;2024-01-30T14:45:54;7.53;;;2.40;;